Terminal Aerodrome Forecast
Issued by NWS

Home | Current Version | Previous Version | Graphics & Text | Print | Product List | Glossary On
Versions: 1 2 3 4 5 6 7 8 9 10 11 12 13 14 15 16 17 18 19 20
000
FTUS43 KICT 160500 AAA
TAFCNU
TAF AMD
KCNU 160546Z 1606/1706 04007KT P6SM BKN035 OVC060
      TEMPO 1606/1610 BKN017
     FM161000 07005KT P6SM OVC014
     FM161600 12006KT P6SM BKN035=

USA.gov is the U.S. government's official web portal to all federal, state and local government web resources and services.